sensor_id;sensor_type;location;lat;lon;timestamp;P1;durP1;ratioP1;P2;durP2;ratioP2
82248;SDS011;71851;49.092;18.918;2024-02-15T00:01:57;22.98;;;13.38;;
82248;SDS011;71851;49.092;18.918;2024-02-15T00:04:57;24.80;;;15.63;;
82248;SDS011;71851;49.092;18.918;2024-02-15T00:07:58;21.50;;;12.95;;
82248;SDS011;71851;49.092;18.918;2024-02-15T00:10:59;19.08;;;11.23;;
82248;SDS011;71851;49.092;18.918;2024-02-15T00:14:00;17.50;;;10.05;;
82248;SDS011;71851;49.092;18.918;2024-02-15T00:17:00;19.23;;;12.05;;
82248;SDS011;71851;49.092;18.918;2024-02-15T00:20:02;25.17;;;14.18;;
82248;SDS011;71851;49.092;18.918;2024-02-15T00:23:09;23.17;;;11.20;;
82248;SDS011;71851;49.092;18.918;2024-02-15T00:26:11;21.02;;;13.30;;
82248;SDS011;71851;49.092;18.918;2024-02-15T00:29:12;18.48;;;11.63;;
82248;SDS011;71851;49.092;18.918;2024-02-15T00:32:12;19.65;;;11.18;;
82248;SDS011;71851;49.092;18.918;2024-02-15T00:35:13;14.38;;;9.45;;
82248;SDS011;71851;49.092;18.918;2024-02-15T00:38:15;12.15;;;8.25;;
82248;SDS011;71851;49.092;18.918;2024-02-15T00:41:15;9.27;;;6.57;;
82248;SDS011;71851;49.092;18.918;2024-02-15T00:44:15;10.38;;;6.07;;
82248;SDS011;71851;49.092;18.918;2024-02-15T00:47:17;12.48;;;6.95;;
82248;SDS011;71851;49.092;18.918;2024-02-15T00:50:20;15.35;;;8.93;;
82248;SDS011;71851;49.092;18.918;2024-02-15T00:53:20;10.85;;;7.22;;
82248;SDS011;71851;49.092;18.918;2024-02-15T00:56:21;9.98;;;6.88;;
82248;SDS011;71851;49.092;18.918;2024-02-15T00:59:22;12.20;;;8.07;;
82248;SDS011;71851;49.092;18.918;2024-02-15T01:02:22;12.02;;;7.07;;
82248;SDS011;71851;49.092;18.918;2024-02-15T01:05:23;9.48;;;6.47;;
82248;SDS011;71851;49.092;18.918;2024-02-15T01:08:24;12.25;;;7.13;;
82248;SDS011;71851;49.092;18.918;2024-02-15T01:11:27;21.88;;;10.85;;
82248;SDS011;71851;49.092;18.918;2024-02-15T01:14:28;18.77;;;12.38;;
82248;SDS011;71851;49.092;18.918;2024-02-15T01:17:30;18.52;;;12.40;;
82248;SDS011;71851;49.092;18.918;2024-02-15T01:20:31;16.33;;;10.88;;
82248;SDS011;71851;49.092;18.918;2024-02-15T01:23:33;17.30;;;11.20;;
82248;SDS011;71851;49.092;18.918;2024-02-15T01:26:35;17.17;;;9.88;;
82248;SDS011;71851;49.092;18.918;2024-02-15T01:29:35;14.82;;;9.95;;
82248;SDS011;71851;49.092;18.918;2024-02-15T01:32:36;17.25;;;10.57;;
82248;SDS011;71851;49.092;18.918;2024-02-15T01:35:37;19.05;;;11.93;;
82248;SDS011;71851;49.092;18.918;2024-02-15T01:38:37;17.55;;;10.75;;
82248;SDS011;71851;49.092;18.918;2024-02-15T01:41:38;16.05;;;10.07;;
82248;SDS011;71851;49.092;18.918;2024-02-15T01:44:38;15.60;;;8.30;;
82248;SDS011;71851;49.092;18.918;2024-02-15T01:47:41;13.88;;;9.10;;
82248;SDS011;71851;49.092;18.918;2024-02-15T01:50:42;15.15;;;9.93;;
82248;SDS011;71851;49.092;18.918;2024-02-15T01:53:43;17.67;;;10.30;;
82248;SDS011;71851;49.092;18.918;2024-02-15T01:56:45;19.05;;;11.32;;
82248;SDS011;71851;49.092;18.918;2024-02-15T01:59:46;15.68;;;10.45;;
82248;SDS011;71851;49.092;18.918;2024-02-15T02:02:48;15.98;;;10.13;;
82248;SDS011;71851;49.092;18.918;2024-02-15T02:05:49;16.52;;;10.05;;
82248;SDS011;71851;49.092;18.918;2024-02-15T02:08:50;17.92;;;11.13;;
82248;SDS011;71851;49.092;18.918;2024-02-15T02:11:50;13.85;;;8.68;;
82248;SDS011;71851;49.092;18.918;2024-02-15T02:14:51;14.85;;;9.48;;
82248;SDS011;71851;49.092;18.918;2024-02-15T02:17:52;13.30;;;7.95;;
82248;SDS011;71851;49.092;18.918;2024-02-15T02:20:52;11.63;;;7.65;;
82248;SDS011;71851;49.092;18.918;2024-02-15T02:23:56;13.70;;;9.32;;
82248;SDS011;71851;49.092;18.918;2024-02-15T02:26:56;13.35;;;8.25;;
82248;SDS011;71851;49.092;18.918;2024-02-15T02:29:57;15.00;;;8.85;;
82248;SDS011;71851;49.092;18.918;2024-02-15T02:32:59;14.88;;;8.77;;
82248;SDS011;71851;49.092;18.918;2024-02-15T02:35:59;13.38;;;8.13;;
82248;SDS011;71851;49.092;18.918;2024-02-15T02:39:00;12.55;;;8.05;;
82248;SDS011;71851;49.092;18.918;2024-02-15T02:42:00;12.93;;;7.97;;
82248;SDS011;71851;49.092;18.918;2024-02-15T02:45:01;12.02;;;8.70;;
82248;SDS011;71851;49.092;18.918;2024-02-15T02:48:02;12.32;;;7.75;;
82248;SDS011;71851;49.092;18.918;2024-02-15T02:51:02;13.85;;;7.55;;
82248;SDS011;71851;49.092;18.918;2024-02-15T02:54:04;11.52;;;7.22;;
82248;SDS011;71851;49.092;18.918;2024-02-15T02:57:07;9.50;;;7.38;;
82248;SDS011;71851;49.092;18.918;2024-02-15T03:00:09;11.38;;;6.57;;
82248;SDS011;71851;49.092;18.918;2024-02-15T03:03:15;9.93;;;6.82;;
82248;SDS011;71851;49.092;18.918;2024-02-15T03:06:16;11.55;;;7.35;;
82248;SDS011;71851;49.092;18.918;2024-02-15T03:09:16;10.45;;;6.60;;
82248;SDS011;71851;49.092;18.918;2024-02-15T03:12:18;9.85;;;6.03;;
82248;SDS011;71851;49.092;18.918;2024-02-15T03:15:18;7.38;;;5.28;;
82248;SDS011;71851;49.092;18.918;2024-02-15T03:18:19;9.10;;;5.45;;
82248;SDS011;71851;49.092;18.918;2024-02-15T03:21:19;8.45;;;5.80;;
82248;SDS011;71851;49.092;18.918;2024-02-15T03:24:21;8.63;;;5.90;;
82248;SDS011;71851;49.092;18.918;2024-02-15T03:27:22;9.25;;;5.90;;
82248;SDS011;71851;49.092;18.918;2024-02-15T03:30:24;8.95;;;5.13;;
82248;SDS011;71851;49.092;18.918;2024-02-15T03:33:26;7.68;;;4.57;;
82248;SDS011;71851;49.092;18.918;2024-02-15T03:36:32;7.95;;;4.65;;
82248;SDS011;71851;49.092;18.918;2024-02-15T03:39:34;8.60;;;5.53;;
82248;SDS011;71851;49.092;18.918;2024-02-15T03:42:35;7.18;;;4.45;;
82248;SDS011;71851;49.092;18.918;2024-02-15T03:45:38;6.95;;;4.35;;
82248;SDS011;71851;49.092;18.918;2024-02-15T03:48:41;10.02;;;5.10;;
82248;SDS011;71851;49.092;18.918;2024-02-15T03:51:44;6.50;;;4.55;;
82248;SDS011;71851;49.092;18.918;2024-02-15T03:54:45;8.30;;;4.78;;
82248;SDS011;71851;49.092;18.918;2024-02-15T03:57:46;6.70;;;3.53;;
82248;SDS011;71851;49.092;18.918;2024-02-15T04:00:47;6.97;;;4.25;;
82248;SDS011;71851;49.092;18.918;2024-02-15T04:03:49;5.03;;;3.42;;
82248;SDS011;71851;49.092;18.918;2024-02-15T04:06:50;6.55;;;3.85;;
82248;SDS011;71851;49.092;18.918;2024-02-15T04:09:51;5.75;;;3.38;;
82248;SDS011;71851;49.092;18.918;2024-02-15T04:12:52;5.25;;;3.80;;
82248;SDS011;71851;49.092;18.918;2024-02-15T04:15:53;6.10;;;3.78;;
82248;SDS011;71851;49.092;18.918;2024-02-15T04:18:54;5.07;;;3.45;;
82248;SDS011;71851;49.092;18.918;2024-02-15T04:21:57;4.78;;;3.55;;
82248;SDS011;71851;49.092;18.918;2024-02-15T04:24:57;6.70;;;3.38;;
82248;SDS011;71851;49.092;18.918;2024-02-15T04:27:58;5.28;;;4.22;;
82248;SDS011;71851;49.092;18.918;2024-02-15T04:31:03;5.38;;;3.72;;
82248;SDS011;71851;49.092;18.918;2024-02-15T04:34:06;5.25;;;3.83;;
82248;SDS011;71851;49.092;18.918;2024-02-15T04:37:07;7.80;;;4.25;;
82248;SDS011;71851;49.092;18.918;2024-02-15T04:40:07;7.25;;;4.40;;
82248;SDS011;71851;49.092;18.918;2024-02-15T04:43:10;7.85;;;3.88;;
82248;SDS011;71851;49.092;18.918;2024-02-15T04:46:10;6.30;;;4.38;;
82248;SDS011;71851;49.092;18.918;2024-02-15T04:49:10;6.15;;;4.22;;
82248;SDS011;71851;49.092;18.918;2024-02-15T04:52:11;7.65;;;4.07;;
82248;SDS011;71851;49.092;18.918;2024-02-15T04:55:11;6.30;;;4.10;;
82248;SDS011;71851;49.092;18.918;2024-02-15T04:58:12;7.68;;;4.90;;
82248;SDS011;71851;49.092;18.918;2024-02-15T05:01:13;9.48;;;4.55;;
82248;SDS011;71851;49.092;18.918;2024-02-15T05:04:14;9.15;;;4.20;;
82248;SDS011;71851;49.092;18.918;2024-02-15T05:07:16;10.20;;;5.78;;
82248;SDS011;71851;49.092;18.918;2024-02-15T05:10:17;7.65;;;4.07;;
82248;SDS011;71851;49.092;18.918;2024-02-15T05:13:17;6.47;;;4.10;;
82248;SDS011;71851;49.092;18.918;2024-02-15T05:16:18;6.88;;;4.32;;
82248;SDS011;71851;49.092;18.918;2024-02-15T05:19:19;5.00;;;4.13;;
82248;SDS011;71851;49.092;18.918;2024-02-15T05:22:20;10.27;;;4.30;;
82248;SDS011;71851;49.092;18.918;2024-02-15T05:25:20;6.03;;;3.92;;
82248;SDS011;71851;49.092;18.918;2024-02-15T05:28:22;5.72;;;3.55;;
82248;SDS011;71851;49.092;18.918;2024-02-15T05:31:26;6.15;;;3.85;;
82248;SDS011;71851;49.092;18.918;2024-02-15T05:34:27;5.43;;;3.33;;
82248;SDS011;71851;49.092;18.918;2024-02-15T05:37:29;6.38;;;4.50;;
82248;SDS011;71851;49.092;18.918;2024-02-15T05:40:31;6.95;;;4.85;;
82248;SDS011;71851;49.092;18.918;2024-02-15T05:43:31;11.07;;;7.25;;
82248;SDS011;71851;49.092;18.918;2024-02-15T05:46:32;6.03;;;4.45;;
82248;SDS011;71851;49.092;18.918;2024-02-15T05:49:33;12.80;;;4.90;;
82248;SDS011;71851;49.092;18.918;2024-02-15T05:52:35;7.53;;;4.75;;
82248;SDS011;71851;49.092;18.918;2024-02-15T05:55:36;7.97;;;4.60;;
82248;SDS011;71851;49.092;18.918;2024-02-15T05:58:38;9.23;;;6.40;;
82248;SDS011;71851;49.092;18.918;2024-02-15T06:01:39;9.68;;;6.45;;
82248;SDS011;71851;49.092;18.918;2024-02-15T06:04:41;10.55;;;6.25;;
82248;SDS011;71851;49.092;18.918;2024-02-15T06:07:41;9.40;;;5.88;;
82248;SDS011;71851;49.092;18.918;2024-02-15T06:10:42;11.55;;;6.50;;
82248;SDS011;71851;49.092;18.918;2024-02-15T06:13:43;8.55;;;6.40;;
82248;SDS011;71851;49.092;18.918;2024-02-15T06:16:43;12.23;;;7.88;;
82248;SDS011;71851;49.092;18.918;2024-02-15T06:19:44;21.02;;;14.18;;
82248;SDS011;71851;49.092;18.918;2024-02-15T06:22:45;17.33;;;12.35;;
82248;SDS011;71851;49.092;18.918;2024-02-15T06:25:46;14.35;;;10.30;;
82248;SDS011;71851;49.092;18.918;2024-02-15T06:28:51;12.55;;;10.68;;
82248;SDS011;71851;49.092;18.918;2024-02-15T06:32:10;16.05;;;10.10;;
82248;SDS011;71851;49.092;18.918;2024-02-15T06:35:30;18.45;;;11.43;;
82248;SDS011;71851;49.092;18.918;2024-02-15T06:38:48;12.30;;;8.05;;
82248;SDS011;71851;49.092;18.918;2024-02-15T06:42:08;13.00;;;9.65;;
82248;SDS011;71851;49.092;18.918;2024-02-15T06:45:10;21.65;;;12.40;;
82248;SDS011;71851;49.092;18.918;2024-02-15T06:48:13;24.17;;;16.40;;
82248;SDS011;71851;49.092;18.918;2024-02-15T06:51:13;28.92;;;17.50;;
82248;SDS011;71851;49.092;18.918;2024-02-15T06:54:15;24.27;;;16.27;;
82248;SDS011;71851;49.092;18.918;2024-02-15T06:57:17;22.45;;;15.02;;
82248;SDS011;71851;49.092;18.918;2024-02-15T07:00:18;18.05;;;14.23;;
82248;SDS011;71851;49.092;18.918;2024-02-15T07:03:19;17.50;;;12.90;;
82248;SDS011;71851;49.092;18.918;2024-02-15T07:06:19;17.95;;;12.05;;
82248;SDS011;71851;49.092;18.918;2024-02-15T07:09:20;18.20;;;12.65;;
82248;SDS011;71851;49.092;18.918;2024-02-15T07:12:23;19.27;;;12.38;;
82248;SDS011;71851;49.092;18.918;2024-02-15T07:15:23;18.80;;;12.13;;
82248;SDS011;71851;49.092;18.918;2024-02-15T07:18:23;17.02;;;11.98;;
82248;SDS011;71851;49.092;18.918;2024-02-15T07:21:25;17.38;;;11.27;;
82248;SDS011;71851;49.092;18.918;2024-02-15T07:24:29;16.10;;;11.07;;
82248;SDS011;71851;49.092;18.918;2024-02-15T07:27:29;16.45;;;11.02;;
82248;SDS011;71851;49.092;18.918;2024-02-15T07:30:30;27.88;;;12.05;;
82248;SDS011;71851;49.092;18.918;2024-02-15T07:33:31;16.80;;;10.10;;
82248;SDS011;71851;49.092;18.918;2024-02-15T07:36:32;19.15;;;10.88;;
82248;SDS011;71851;49.092;18.918;2024-02-15T07:39:32;17.52;;;11.00;;
82248;SDS011;71851;49.092;18.918;2024-02-15T07:42:32;15.55;;;11.43;;
82248;SDS011;71851;49.092;18.918;2024-02-15T07:45:35;17.17;;;10.30;;
82248;SDS011;71851;49.092;18.918;2024-02-15T07:48:37;17.77;;;10.50;;
82248;SDS011;71851;49.092;18.918;2024-02-15T07:51:38;21.00;;;11.98;;
82248;SDS011;71851;49.092;18.918;2024-02-15T07:54:39;23.52;;;12.50;;
82248;SDS011;71851;49.092;18.918;2024-02-15T07:57:39;16.75;;;11.68;;
82248;SDS011;71851;49.092;18.918;2024-02-15T08:00:40;16.65;;;12.48;;
82248;SDS011;71851;49.092;18.918;2024-02-15T08:03:40;18.75;;;12.65;;
82248;SDS011;71851;49.092;18.918;2024-02-15T08:06:44;17.65;;;11.52;;
82248;SDS011;71851;49.092;18.918;2024-02-15T08:09:44;14.18;;;10.65;;
82248;SDS011;71851;49.092;18.918;2024-02-15T08:12:45;15.70;;;10.65;;
82248;SDS011;71851;49.092;18.918;2024-02-15T08:15:46;15.50;;;11.18;;
82248;SDS011;71851;49.092;18.918;2024-02-15T08:18:48;18.45;;;11.30;;
82248;SDS011;71851;49.092;18.918;2024-02-15T08:21:52;20.20;;;14.88;;
82248;SDS011;71851;49.092;18.918;2024-02-15T08:24:52;21.85;;;13.68;;
82248;SDS011;71851;49.092;18.918;2024-02-15T08:27:53;21.77;;;14.38;;
82248;SDS011;71851;49.092;18.918;2024-02-15T08:30:57;22.88;;;12.93;;
82248;SDS011;71851;49.092;18.918;2024-02-15T08:33:58;21.48;;;14.23;;
82248;SDS011;71851;49.092;18.918;2024-02-15T08:36:58;20.65;;;12.80;;
82248;SDS011;71851;49.092;18.918;2024-02-15T08:39:58;22.80;;;11.90;;
82248;SDS011;71851;49.092;18.918;2024-02-15T08:42:59;22.73;;;13.52;;
82248;SDS011;71851;49.092;18.918;2024-02-15T08:46:00;22.40;;;13.55;;
82248;SDS011;71851;49.092;18.918;2024-02-15T08:49:01;22.20;;;13.77;;
82248;SDS011;71851;49.092;18.918;2024-02-15T08:52:03;20.15;;;12.63;;
82248;SDS011;71851;49.092;18.918;2024-02-15T08:55:08;19.67;;;13.65;;
82248;SDS011;71851;49.092;18.918;2024-02-15T08:58:09;19.58;;;12.90;;
82248;SDS011;71851;49.092;18.918;2024-02-15T09:01:10;22.17;;;14.38;;
82248;SDS011;71851;49.092;18.918;2024-02-15T09:07:13;25.67;;;13.40;;
82248;SDS011;71851;49.092;18.918;2024-02-15T09:10:14;18.58;;;12.13;;
82248;SDS011;71851;49.092;18.918;2024-02-15T09:13:17;24.80;;;15.57;;
82248;SDS011;71851;49.092;18.918;2024-02-15T09:16:17;20.45;;;13.30;;
82248;SDS011;71851;49.092;18.918;2024-02-15T09:19:18;19.80;;;14.27;;
82248;SDS011;71851;49.092;18.918;2024-02-15T09:22:19;19.95;;;14.93;;
82248;SDS011;71851;49.092;18.918;2024-02-15T09:25:20;18.80;;;12.43;;
82248;SDS011;71851;49.092;18.918;2024-02-15T09:28:24;18.52;;;13.10;;
82248;SDS011;71851;49.092;18.918;2024-02-15T09:31:25;19.10;;;11.82;;
82248;SDS011;71851;49.092;18.918;2024-02-15T09:34:26;18.27;;;12.00;;
82248;SDS011;71851;49.092;18.918;2024-02-15T09:37:26;19.83;;;12.27;;
82248;SDS011;71851;49.092;18.918;2024-02-15T09:40:28;17.17;;;11.10;;
82248;SDS011;71851;49.092;18.918;2024-02-15T09:43:29;19.58;;;11.70;;
82248;SDS011;71851;49.092;18.918;2024-02-15T09:46:32;14.85;;;10.32;;
82248;SDS011;71851;49.092;18.918;2024-02-15T09:49:36;17.38;;;11.90;;
82248;SDS011;71851;49.092;18.918;2024-02-15T09:52:39;20.05;;;12.27;;
82248;SDS011;71851;49.092;18.918;2024-02-15T09:55:49;15.45;;;11.75;;
82248;SDS011;71851;49.092;18.918;2024-02-15T09:58:50;15.60;;;10.52;;
82248;SDS011;71851;49.092;18.918;2024-02-15T10:01:51;17.40;;;10.95;;
82248;SDS011;71851;49.092;18.918;2024-02-15T10:04:58;17.60;;;12.25;;
82248;SDS011;71851;49.092;18.918;2024-02-15T10:07:59;15.73;;;10.70;;
82248;SDS011;71851;49.092;18.918;2024-02-15T10:14:10;16.10;;;10.15;;
82248;SDS011;71851;49.092;18.918;2024-02-15T10:17:11;16.95;;;10.32;;
82248;SDS011;71851;49.092;18.918;2024-02-15T10:20:11;14.38;;;9.35;;
82248;SDS011;71851;49.092;18.918;2024-02-15T10:23:13;13.45;;;9.00;;
82248;SDS011;71851;49.092;18.918;2024-02-15T10:26:20;13.77;;;9.30;;
82248;SDS011;71851;49.092;18.918;2024-02-15T10:29:22;15.07;;;9.80;;
82248;SDS011;71851;49.092;18.918;2024-02-15T10:32:23;15.15;;;9.60;;
82248;SDS011;71851;49.092;18.918;2024-02-15T10:35:34;18.38;;;10.23;;
82248;SDS011;71851;49.092;18.918;2024-02-15T10:38:36;15.57;;;10.45;;
82248;SDS011;71851;49.092;18.918;2024-02-15T10:41:38;16.23;;;10.35;;
82248;SDS011;71851;49.092;18.918;2024-02-15T10:44:46;14.77;;;9.70;;
82248;SDS011;71851;49.092;18.918;2024-02-15T10:47:47;14.35;;;10.00;;
82248;SDS011;71851;49.092;18.918;2024-02-15T10:50:47;15.13;;;9.15;;
82248;SDS011;71851;49.092;18.918;2024-02-15T10:53:55;14.13;;;8.80;;
82248;SDS011;71851;49.092;18.918;2024-02-15T10:57:04;16.10;;;10.68;;
82248;SDS011;71851;49.092;18.918;2024-02-15T11:00:05;16.90;;;10.70;;
82248;SDS011;71851;49.092;18.918;2024-02-15T11:03:10;16.73;;;10.65;;
82248;SDS011;71851;49.092;18.918;2024-02-15T11:06:21;16.38;;;11.63;;
82248;SDS011;71851;49.092;18.918;2024-02-15T11:09:23;18.02;;;10.52;;
82248;SDS011;71851;49.092;18.918;2024-02-15T11:12:25;17.08;;;11.55;;
82248;SDS011;71851;49.092;18.918;2024-02-15T11:18:54;16.70;;;9.55;;
82248;SDS011;71851;49.092;18.918;2024-02-15T11:21:55;14.18;;;8.68;;
82248;SDS011;71851;49.092;18.918;2024-02-15T11:24:57;11.85;;;8.38;;
82248;SDS011;71851;49.092;18.918;2024-02-15T11:27:57;13.25;;;7.40;;
82248;SDS011;71851;49.092;18.918;2024-02-15T11:30:57;12.82;;;8.50;;
82248;SDS011;71851;49.092;18.918;2024-02-15T11:33:58;12.73;;;8.00;;
82248;SDS011;71851;49.092;18.918;2024-02-15T11:36:58;12.75;;;7.60;;
82248;SDS011;71851;49.092;18.918;2024-02-15T11:39:59;13.40;;;8.05;;
82248;SDS011;71851;49.092;18.918;2024-02-15T11:43:00;11.27;;;7.35;;
82248;SDS011;71851;49.092;18.918;2024-02-15T11:46:01;14.70;;;9.13;;
82248;SDS011;71851;49.092;18.918;2024-02-15T11:49:03;11.95;;;7.30;;
82248;SDS011;71851;49.092;18.918;2024-02-15T11:52:09;11.50;;;7.82;;
82248;SDS011;71851;49.092;18.918;2024-02-15T11:55:18;10.68;;;6.90;;
82248;SDS011;71851;49.092;18.918;2024-02-15T11:58:21;15.15;;;8.27;;
82248;SDS011;71851;49.092;18.918;2024-02-15T12:01:29;14.38;;;9.20;;
82248;SDS011;71851;49.092;18.918;2024-02-15T12:04:49;11.65;;;7.88;;
82248;SDS011;71851;49.092;18.918;2024-02-15T12:08:10;14.35;;;8.43;;
82248;SDS011;71851;49.092;18.918;2024-02-15T12:11:29;9.88;;;7.90;;
82248;SDS011;71851;49.092;18.918;2024-02-15T12:14:48;15.40;;;8.40;;
82248;SDS011;71851;49.092;18.918;2024-02-15T12:18:17;10.80;;;7.47;;
82248;SDS011;71851;49.092;18.918;2024-02-15T12:21:36;11.60;;;7.38;;
82248;SDS011;71851;49.092;18.918;2024-02-15T12:24:41;11.68;;;6.82;;
82248;SDS011;71851;49.092;18.918;2024-02-15T12:27:42;10.90;;;6.68;;
82248;SDS011;71851;49.092;18.918;2024-02-15T12:30:46;11.07;;;7.03;;
82248;SDS011;71851;49.092;18.918;2024-02-15T12:34:02;10.48;;;7.05;;
82248;SDS011;71851;49.092;18.918;2024-02-15T12:37:06;11.50;;;7.28;;
82248;SDS011;71851;49.092;18.918;2024-02-15T12:40:10;11.88;;;8.07;;
82248;SDS011;71851;49.092;18.918;2024-02-15T12:43:15;11.65;;;7.35;;
82248;SDS011;71851;49.092;18.918;2024-02-15T12:46:17;12.90;;;7.18;;
82248;SDS011;71851;49.092;18.918;2024-02-15T12:52:33;12.90;;;7.43;;
82248;SDS011;71851;49.092;18.918;2024-02-15T12:55:36;11.50;;;6.50;;
82248;SDS011;71851;49.092;18.918;2024-02-15T12:58:38;11.98;;;7.30;;
82248;SDS011;71851;49.092;18.918;2024-02-15T13:01:40;11.07;;;7.30;;
82248;SDS011;71851;49.092;18.918;2024-02-15T13:04:41;11.10;;;7.40;;
82248;SDS011;71851;49.092;18.918;2024-02-15T13:07:41;13.02;;;6.95;;
82248;SDS011;71851;49.092;18.918;2024-02-15T13:10:42;10.73;;;6.85;;
82248;SDS011;71851;49.092;18.918;2024-02-15T13:13:43;12.82;;;7.05;;
82248;SDS011;71851;49.092;18.918;2024-02-15T13:16:43;11.23;;;6.63;;
82248;SDS011;71851;49.092;18.918;2024-02-15T13:19:48;10.80;;;8.00;;
82248;SDS011;71851;49.092;18.918;2024-02-15T13:22:49;14.80;;;7.53;;
82248;SDS011;71851;49.092;18.918;2024-02-15T13:25:49;13.38;;;7.85;;
82248;SDS011;71851;49.092;18.918;2024-02-15T13:28:50;12.45;;;6.93;;
82248;SDS011;71851;49.092;18.918;2024-02-15T13:31:50;12.52;;;8.02;;
82248;SDS011;71851;49.092;18.918;2024-02-15T13:34:51;10.15;;;6.95;;
82248;SDS011;71851;49.092;18.918;2024-02-15T13:37:53;12.35;;;8.20;;
82248;SDS011;71851;49.092;18.918;2024-02-15T13:43:56;14.23;;;8.77;;
82248;SDS011;71851;49.092;18.918;2024-02-15T13:46:57;18.27;;;7.45;;
82248;SDS011;71851;49.092;18.918;2024-02-15T13:49:57;14.52;;;8.05;;
82248;SDS011;71851;49.092;18.918;2024-02-15T13:52:58;10.27;;;7.60;;
82248;SDS011;71851;49.092;18.918;2024-02-15T13:55:58;13.05;;;8.65;;
82248;SDS011;71851;49.092;18.918;2024-02-15T13:58:59;12.05;;;7.85;;
82248;SDS011;71851;49.092;18.918;2024-02-15T14:02:00;14.63;;;8.40;;
82248;SDS011;71851;49.092;18.918;2024-02-15T14:05:01;11.10;;;9.35;;
82248;SDS011;71851;49.092;18.918;2024-02-15T14:08:02;13.75;;;8.52;;
82248;SDS011;71851;49.092;18.918;2024-02-15T14:11:05;15.05;;;7.80;;
82248;SDS011;71851;49.092;18.918;2024-02-15T14:14:06;12.48;;;8.18;;
82248;SDS011;71851;49.092;18.918;2024-02-15T14:17:07;12.10;;;9.27;;
82248;SDS011;71851;49.092;18.918;2024-02-15T14:20:07;16.45;;;7.97;;
82248;SDS011;71851;49.092;18.918;2024-02-15T14:23:08;13.25;;;8.55;;
82248;SDS011;71851;49.092;18.918;2024-02-15T14:26:13;10.90;;;7.72;;
82248;SDS011;71851;49.092;18.918;2024-02-15T14:29:14;11.77;;;8.20;;
82248;SDS011;71851;49.092;18.918;2024-02-15T14:32:16;16.33;;;9.15;;
82248;SDS011;71851;49.092;18.918;2024-02-15T14:35:36;14.77;;;9.80;;
82248;SDS011;71851;49.092;18.918;2024-02-15T14:38:40;15.10;;;9.05;;
82248;SDS011;71851;49.092;18.918;2024-02-15T14:41:41;12.13;;;8.38;;
82248;SDS011;71851;49.092;18.918;2024-02-15T14:44:41;16.92;;;9.85;;
82248;SDS011;71851;49.092;18.918;2024-02-15T14:47:43;16.17;;;9.80;;
82248;SDS011;71851;49.092;18.918;2024-02-15T14:50:43;17.50;;;9.85;;
82248;SDS011;71851;49.092;18.918;2024-02-15T14:53:44;16.92;;;8.93;;
82248;SDS011;71851;49.092;18.918;2024-02-15T14:56:44;12.35;;;8.43;;
82248;SDS011;71851;49.092;18.918;2024-02-15T14:59:45;17.38;;;9.60;;
82248;SDS011;71851;49.092;18.918;2024-02-15T15:02:45;17.60;;;9.20;;
82248;SDS011;71851;49.092;18.918;2024-02-15T15:05:47;15.15;;;9.13;;
82248;SDS011;71851;49.092;18.918;2024-02-15T15:09:06;13.00;;;8.25;;
82248;SDS011;71851;49.092;18.918;2024-02-15T15:12:24;13.25;;;8.52;;
82248;SDS011;71851;49.092;18.918;2024-02-15T15:15:37;13.70;;;8.10;;
82248;SDS011;71851;49.092;18.918;2024-02-15T15:18:42;12.15;;;8.90;;
82248;SDS011;71851;49.092;18.918;2024-02-15T15:21:46;15.63;;;8.07;;
82248;SDS011;71851;49.092;18.918;2024-02-15T15:24:46;13.32;;;9.07;;
82248;SDS011;71851;49.092;18.918;2024-02-15T15:27:47;14.40;;;8.88;;
82248;SDS011;71851;49.092;18.918;2024-02-15T15:30:48;13.48;;;8.27;;
82248;SDS011;71851;49.092;18.918;2024-02-15T15:33:50;13.55;;;8.45;;
82248;SDS011;71851;49.092;18.918;2024-02-15T15:36:50;14.07;;;9.20;;
82248;SDS011;71851;49.092;18.918;2024-02-15T15:39:54;14.27;;;10.20;;
82248;SDS011;71851;49.092;18.918;2024-02-15T15:42:56;15.73;;;9.18;;
82248;SDS011;71851;49.092;18.918;2024-02-15T15:45:57;14.65;;;9.77;;
82248;SDS011;71851;49.092;18.918;2024-02-15T15:52:01;15.57;;;10.52;;
82248;SDS011;71851;49.092;18.918;2024-02-15T15:55:01;15.02;;;9.43;;
82248;SDS011;71851;49.092;18.918;2024-02-15T15:58:02;14.80;;;8.95;;
82248;SDS011;71851;49.092;18.918;2024-02-15T16:01:02;20.40;;;12.45;;
82248;SDS011;71851;49.092;18.918;2024-02-15T16:04:04;16.60;;;10.73;;
82248;SDS011;71851;49.092;18.918;2024-02-15T16:07:05;16.30;;;10.63;;
82248;SDS011;71851;49.092;18.918;2024-02-15T16:10:07;48.90;;;24.02;;
82248;SDS011;71851;49.092;18.918;2024-02-15T16:13:08;68.30;;;29.50;;
82248;SDS011;71851;49.092;18.918;2024-02-15T16:16:08;51.42;;;26.20;;
82248;SDS011;71851;49.092;18.918;2024-02-15T16:19:09;39.33;;;19.95;;
82248;SDS011;71851;49.092;18.918;2024-02-15T16:22:10;24.35;;;13.30;;
82248;SDS011;71851;49.092;18.918;2024-02-15T16:25:11;18.80;;;11.90;;
82248;SDS011;71851;49.092;18.918;2024-02-15T16:28:11;16.45;;;11.25;;
82248;SDS011;71851;49.092;18.918;2024-02-15T16:31:12;18.23;;;13.05;;
82248;SDS011;71851;49.092;18.918;2024-02-15T16:34:13;19.73;;;12.90;;
82248;SDS011;71851;49.092;18.918;2024-02-15T16:37:14;23.33;;;16.75;;
82248;SDS011;71851;49.092;18.918;2024-02-15T16:40:15;35.15;;;21.85;;
82248;SDS011;71851;49.092;18.918;2024-02-15T16:43:17;49.42;;;32.50;;
82248;SDS011;71851;49.092;18.918;2024-02-15T16:46:17;62.58;;;38.83;;
82248;SDS011;71851;49.092;18.918;2024-02-15T16:49:17;55.03;;;37.35;;
82248;SDS011;71851;49.092;18.918;2024-02-15T16:52:18;40.35;;;28.13;;
82248;SDS011;71851;49.092;18.918;2024-02-15T16:55:18;18.42;;;12.73;;
82248;SDS011;71851;49.092;18.918;2024-02-15T16:58:19;24.15;;;16.38;;
82248;SDS011;71851;49.092;18.918;2024-02-15T17:01:21;20.13;;;13.85;;
82248;SDS011;71851;49.092;18.918;2024-02-15T17:04:22;15.50;;;9.82;;
82248;SDS011;71851;49.092;18.918;2024-02-15T17:07:22;14.18;;;8.82;;
82248;SDS011;71851;49.092;18.918;2024-02-15T17:10:23;18.40;;;10.60;;
82248;SDS011;71851;49.092;18.918;2024-02-15T17:13:24;16.15;;;11.25;;
82248;SDS011;71851;49.092;18.918;2024-02-15T17:16:24;17.33;;;11.40;;
82248;SDS011;71851;49.092;18.918;2024-02-15T17:19:26;21.98;;;14.90;;
82248;SDS011;71851;49.092;18.918;2024-02-15T17:22:27;22.77;;;13.68;;
82248;SDS011;71851;49.092;18.918;2024-02-15T17:25:28;23.90;;;15.25;;
82248;SDS011;71851;49.092;18.918;2024-02-15T17:28:28;20.02;;;13.73;;
82248;SDS011;71851;49.092;18.918;2024-02-15T17:31:29;19.55;;;12.27;;
82248;SDS011;71851;49.092;18.918;2024-02-15T17:34:30;17.77;;;10.73;;
82248;SDS011;71851;49.092;18.918;2024-02-15T17:37:30;19.25;;;12.20;;
82248;SDS011;71851;49.092;18.918;2024-02-15T17:40:31;18.38;;;12.18;;
82248;SDS011;71851;49.092;18.918;2024-02-15T17:43:32;18.13;;;10.93;;
82248;SDS011;71851;49.092;18.918;2024-02-15T17:46:32;18.15;;;12.15;;
82248;SDS011;71851;49.092;18.918;2024-02-15T17:49:33;17.55;;;13.30;;
82248;SDS011;71851;49.092;18.918;2024-02-15T17:52:34;23.75;;;13.55;;
82248;SDS011;71851;49.092;18.918;2024-02-15T17:55:35;46.65;;;24.27;;
82248;SDS011;71851;49.092;18.918;2024-02-15T17:58:36;60.05;;;29.42;;
82248;SDS011;71851;49.092;18.918;2024-02-15T18:01:36;50.20;;;26.15;;